Time;durP1;ratioP1;P1;durP2;ratioP2;P2;SDS_P1;SDS_P2;PMS_P1;PMS_P2;Temp;Humidity;BMP_temperature;BMP_pressure;BME280_temperature;BME280_humidity;BME280_pressure;Samples;Min_cycle;Max_cycle;Signal;HPM_P1;HPM_P2
2022/11/22 00:02:04;;;;;;;3.47;2.50;;;9.90;54.90;;;;;;20752;6786;117293;-77
2022/11/22 00:04:39;;;;;;;3.17;2.80;;;9.50;55.30;;;;;;20596;6752;337528;-77
2022/11/22 00:07:15;;;;;;;3.00;2.80;;;9.50;54.60;;;;;;20622;6746;305112;-77
2022/11/22 00:09:50;;;;;;;2.70;2.43;;;9.80;54.20;;;;;;20913;6736;117300;-77
2022/11/22 00:12:26;;;;;;;2.90;2.70;;;9.70;54.20;;;;;;20859;6751;117354;-77
2022/11/22 00:15:02;;;;;;;2.87;2.57;;;9.50;55.50;;;;;;20858;6736;118936;-77
2022/11/22 00:17:37;;;;;;;3.63;2.80;;;9.20;55.20;;;;;;20873;6751;117913;-77
2022/11/22 00:20:14;;;;;;;3.23;2.77;;;9.00;55.50;;;;;;20707;6736;297613;-77
2022/11/22 00:22:50;;;;;;;2.93;2.63;;;9.20;55.50;;;;;;20884;6744;116605;-77
2022/11/22 00:25:26;;;;;;;3.95;2.85;;;9.20;55.40;;;;;;20445;6756;337326;-77
2022/11/22 00:28:03;;;;;;;3.10;2.90;;;9.30;55.80;;;;;;20849;6767;116968;-77
2022/11/22 00:30:38;;;;;;;4.57;2.67;;;9.30;55.30;;;;;;20607;6780;308459;-77
2022/11/22 00:33:14;;;;;;;3.30;2.50;;;9.50;55.40;;;;;;20900;6746;116727;-77
2022/11/22 00:35:50;;;;;;;2.90;2.70;;;9.50;55.40;;;;;;20764;6751;116973;-77
2022/11/22 00:38:25;;;;;;;3.07;2.60;;;9.30;55.80;;;;;;20771;6761;117212;-77
2022/11/22 00:41:02;;;;;;;3.53;3.22;;;9.30;56.90;;;;;;20634;6761;328276;-77
2022/11/22 00:43:37;;;;;;;2.93;2.73;;;9.20;56.70;;;;;;20802;6761;117323;-79
2022/11/22 00:46:13;;;;;;;3.10;2.80;;;9.30;56.60;;;;;;20664;6776;117311;-78
2022/11/22 00:48:48;;;;;;;2.70;2.50;;;9.10;56.80;;;;;;20656;6759;305366;-78
2022/11/22 00:51:33;;;;;;;3.10;2.80;;;9.70;55.80;;;;;;20601;6776;296308;-78
2022/11/22 00:54:01;;;;;;;2.70;2.50;;;9.60;55.60;;;;;;20860;6761;117945;-79
2022/11/22 00:56:37;;;;;;;4.23;2.60;;;9.60;55.50;;;;;;20702;6776;118082;-78
2022/11/22 00:59:13;;;;;;;2.87;2.13;;;9.40;55.90;;;;;;20843;6766;117050;-78
2022/11/22 01:01:48;;;;;;;2.03;1.93;;;9.20;56.30;;;;;;20874;6761;117733;-78
2022/11/22 01:04:24;;;;;;;2.60;2.40;;;9.10;56.60;;;;;;20653;6761;307110;-78
2022/11/22 01:07:02;;;;;;;3.00;2.80;;;9.30;56.80;;;;;;20693;6759;335449;-77
2022/11/22 01:09:35;;;;;;;2.37;2.10;;;9.70;56.00;;;;;;20905;6759;119445;-78
2022/11/22 01:12:12;;;;;;;2.78;2.58;;;9.60;55.70;;;;;;20664;6801;306482;-77
2022/11/22 01:14:50;;;;;;;3.07;2.50;;;9.70;55.80;;;;;;20745;6775;120499;-77
2022/11/22 01:17:23;;;;;;;2.60;2.40;;;9.60;55.70;;;;;;20793;6779;117940;-77
2022/11/22 01:19:59;;;;;;;2.87;2.50;;;9.40;56.20;;;;;;20561;6763;306918;-77
2022/11/22 01:22:34;;;;;;;2.40;2.20;;;9.50;56.30;;;;;;20597;6767;277465;-77
2022/11/22 01:25:10;;;;;;;2.60;2.40;;;9.80;55.70;;;;;;20519;6767;309548;-77
2022/11/22 01:27:46;;;;;;;2.53;2.33;;;10.10;54.20;;;;;;20787;6776;117002;-77
2022/11/22 01:30:21;;;;;;;2.67;2.47;;;10.00;54.20;;;;;;20646;6761;322662;-77
2022/11/22 01:32:58;;;;;;;2.60;2.40;;;10.00;54.20;;;;;;20589;6776;340030;-79
2022/11/22 01:35:33;;;;;;;2.73;2.20;;;10.20;53.80;;;;;;20715;6781;117899;-78
2022/11/22 01:38:09;;;;;;;2.75;2.30;;;10.00;53.90;;;;;;20650;6756;322218;-76
2022/11/22 01:40:44;;;;;;;2.63;2.30;;;10.00;54.20;;;;;;20847;6756;117454;-77
2022/11/22 01:43:23;;;;;;;2.87;1.90;;;9.90;55.30;;;;;;20623;6769;316317;-77
2022/11/22 01:46:01;;;;;;;3.10;2.22;;;9.90;55.50;;;;;;20485;6776;312053;-77
2022/11/22 01:48:46;;;;;;;2.17;1.73;;;9.90;55.40;;;;;;20912;6733;117700;-78
2022/11/22 01:51:35;;;;;;;1.83;1.73;;;9.90;55.30;;;;;;20915;6733;116458;-78
2022/11/22 01:54:11;;;;;;;2.97;2.20;;;9.70;56.50;;;;;;20681;6733;276613;-77
2022/11/22 01:56:47;;;;;;;2.57;2.13;;;9.70;56.50;;;;;;20474;6804;310820;-78
2022/11/22 01:59:23;;;;;;;3.90;2.60;;;10.20;54.70;;;;;;20719;6733;336183;-77
2022/11/22 02:01:59;;;;;;;2.20;2.00;;;10.20;54.80;;;;;;20889;6751;117302;-78
2022/11/22 02:04:34;;;;;;;2.90;2.53;;;10.00;54.70;;;;;;20685;6733;304966;-78
2022/11/22 02:07:18;;;;;;;2.90;2.70;;;10.00;54.60;;;;;;20719;6733;305017;-78
2022/11/22 02:09:53;;;;;;;2.40;2.17;;;10.20;54.30;;;;;;20948;6733;118888;-78
2022/11/22 02:12:30;;;;;;;6.30;2.27;;;10.00;54.40;;;;;;20901;6751;118071;-78
2022/11/22 02:15:08;;;;;;;2.33;2.17;;;9.70;56.00;;;;;;20873;6733;117343;-78
2022/11/22 02:17:40;;;;;;;2.03;1.90;;;9.40;56.60;;;;;;20839;6751;116808;-78
2022/11/22 02:20:16;;;;;;;2.20;2.00;;;9.20;57.00;;;;;;20824;6766;120604;-77
2022/11/22 02:23:11;;;;;;;2.50;2.30;;;9.00;57.30;;;;;;20596;6766;335680;-77
2022/11/22 02:25:50;;;;;;;2.70;2.50;;;9.30;57.90;;;;;;20460;6782;281039;-78
2022/11/22 02:28:26;;;;;;;2.33;2.13;;;9.60;57.50;;;;;;20761;6781;149616;-78
2022/11/22 02:31:01;;;;;;;2.45;2.30;;;9.60;57.20;;;;;;20608;6767;307207;-78
2022/11/22 02:33:37;;;;;;;2.40;2.30;;;9.70;57.40;;;;;;20825;6782;118016;-78
2022/11/22 02:36:12;;;;;;;2.37;2.20;;;9.60;57.40;;;;;;20671;6774;117260;-78
2022/11/22 02:38:48;;;;;;;2.57;1.97;;;9.30;57.80;;;;;;20771;6772;117508;-78
2022/11/22 02:41:23;;;;;;;4.12;2.40;;;9.10;58.30;;;;;;20597;6772;276776;-78
2022/11/22 02:43:59;;;;;;;3.80;2.33;;;9.30;59.00;;;;;;20861;6757;116678;-78
2022/11/22 02:46:36;;;;;;;2.70;2.50;;;9.30;58.60;;;;;;20424;6772;298281;-78
2022/11/22 02:49:11;;;;;;;3.10;2.80;;;9.50;58.60;;;;;;20601;6769;308257;-77
2022/11/22 02:51:47;;;;;;;2.30;2.20;;;9.80;57.80;;;;;;20817;6769;116982;-77
2022/11/22 02:54:23;;;;;;;2.90;2.70;;;9.70;57.70;;;;;;20627;6760;307759;-77
2022/11/22 02:56:58;;;;;;;2.70;2.50;;;9.70;57.80;;;;;;20866;6746;118907;-77
2022/11/22 02:59:34;;;;;;;3.03;2.20;;;9.40;58.10;;;;;;20820;6766;116761;-77
2022/11/22 03:02:10;;;;;;;3.20;2.87;;;9.30;58.00;;;;;;20685;6742;308695;-77
2022/11/22 03:04:46;;;;;;;4.20;2.73;;;9.40;58.80;;;;;;20852;6742;118492;-77
2022/11/22 03:07:23;;;;;;;4.13;2.67;;;9.30;58.00;;;;;;20917;6733;118201;-77
2022/11/22 03:09:58;;;;;;;2.83;2.63;;;9.10;59.10;;;;;;20851;6751;116836;-77
2022/11/22 03:12:35;;;;;;;3.27;2.83;;;8.80;59.00;;;;;;20870;6742;127941;-77
2022/11/22 03:15:11;;;;;;;2.40;2.20;;;8.70;59.40;;;;;;20759;6761;119709;-77
2022/11/22 03:17:46;;;;;;;3.75;2.97;;;8.50;59.80;;;;;;20588;6771;309323;-77
2022/11/22 03:20:22;;;;;;;2.80;2.50;;;8.80;60.00;;;;;;20694;6785;118631;-77
2022/11/22 03:23:02;;;;;;;3.00;2.70;;;8.80;59.60;;;;;;20641;6757;335462;-77
2022/11/22 03:25:38;;;;;;;2.53;2.33;;;9.00;59.70;;;;;;20776;6764;118958;-78
2022/11/22 03:28:33;;;;;;;2.70;2.50;;;8.90;59.20;;;;;;20891;6749;119950;-78
2022/11/22 03:31:09;;;;;;;2.20;2.00;;;8.80;59.70;;;;;;20904;6752;116956;-78
2022/11/22 03:33:44;;;;;;;2.83;2.53;;;8.60;60.10;;;;;;20672;6746;306510;-78
2022/11/22 03:36:20;;;;;;;3.05;2.58;;;8.70;60.30;;;;;;20486;6761;283405;-78
2022/11/22 03:38:56;;;;;;;2.67;2.47;;;9.10;59.80;;;;;;20642;6752;296185;-78
2022/11/22 03:41:31;;;;;;;2.20;2.10;;;9.40;58.80;;;;;;20876;6752;117269;-78
2022/11/22 03:44:07;;;;;;;2.72;2.40;;;9.30;58.70;;;;;;20656;6752;337094;-78
2022/11/22 03:46:42;;;;;;;3.23;1.90;;;9.40;58.70;;;;;;20686;6752;117397;-78
2022/11/22 03:49:18;;;;;;;2.10;2.00;;;9.30;58.70;;;;;;20938;6730;116760;-78
2022/11/22 03:51:54;;;;;;;2.50;2.30;;;9.20;59.30;;;;;;20728;6730;306324;-78
2022/11/22 03:54:30;;;;;;;3.30;2.40;;;9.20;59.30;;;;;;20701;6730;307467;-77
2022/11/22 03:57:05;;;;;;;2.60;2.40;;;9.50;58.60;;;;;;20707;6734;335405;-77
2022/11/22 03:59:41;;;;;;;2.30;2.10;;;9.80;57.70;;;;;;20675;6746;338533;-76
2022/11/22 04:02:17;;;;;;;2.40;2.30;;;9.90;56.90;;;;;;20890;6746;117202;-76
2022/11/22 04:04:52;;;;;;;3.72;2.33;;;9.70;57.00;;;;;;20625;6746;324028;-76
2022/11/22 04:07:28;;;;;;;2.13;2.03;;;9.70;57.10;;;;;;20944;6729;116644;-77
2022/11/22 04:10:04;;;;;;;2.75;2.37;;;9.60;57.30;;;;;;20720;6748;338224;-78
2022/11/22 04:12:39;;;;;;;2.97;2.30;;;9.60;57.40;;;;;;20711;6729;320537;-80
2022/11/22 04:15:15;;;;;;;2.33;2.17;;;9.80;56.90;;;;;;20875;6730;116978;-77
2022/11/22 04:17:50;;;;;;;2.23;2.10;;;9.60;57.00;;;;;;20946;6730;117554;-78
2022/11/22 04:23:26;;;;;;;2.30;2.10;;;9.30;57.70;;;;;;20960;6634;116805;-77
2022/11/22 04:26:02;;;;;;;3.40;2.30;;;9.20;57.60;;;;;;20602;6730;337245;-77
2022/11/22 04:28:38;;;;;;;2.63;2.20;;;9.20;57.60;;;;;;20716;6730;305400;-78
2022/11/22 04:34:09;;;;;;;2.40;2.20;;;9.70;56.00;;;;;;20728;6730;306892;-78
2022/11/22 04:36:45;;;;;;;3.23;2.27;;;9.70;56.40;;;;;;20698;6801;117283;-78
2022/11/22 04:39:21;;;;;;;4.15;2.90;;;9.50;56.60;;;;;;20736;6730;275273;-80
2022/11/22 04:44:59;;;;;;;4.80;2.77;;;9.20;56.90;;;;;;20889;6730;117623;-78
2022/11/22 04:53:21;;;;;;;3.83;2.60;;;8.90;58.20;;;;;;20948;6730;116651;-77
2022/11/22 04:55:58;;;;;;;4.40;2.60;;;8.70;58.10;;;;;;20824;6730;116884;-78
2022/11/22 04:58:33;;;;;;;4.27;2.17;;;8.40;58.70;;;;;;20914;6730;116742;-74
2022/11/22 05:01:09;;;;;;;2.87;2.67;;;8.20;59.40;;;;;;20948;6730;116780;-73
2022/11/22 05:03:45;;;;;;;4.47;2.37;;;7.90;60.50;;;;;;20951;6730;116582;-73
2022/11/22 05:06:21;;;;;;;4.40;3.20;;;7.90;60.30;;;;;;20583;6730;277308;-73
2022/11/22 05:08:57;;;;;;;3.37;2.73;;;8.10;60.70;;;;;;20941;6730;117179;-74
2022/11/22 05:11:34;;;;;;;3.03;2.70;;;8.20;60.40;;;;;;20737;6730;335320;-74
2022/11/22 05:14:08;;;;;;;3.90;2.80;;;8.50;60.30;;;;;;20712;6730;335524;-74
2022/11/22 05:16:44;;;;;;;3.87;2.40;;;8.80;59.30;;;;;;20708;6801;122338;-74
2022/11/22 05:19:20;;;;;;;3.47;2.90;;;8.80;59.00;;;;;;20952;6729;117132;-74
2022/11/22 05:21:55;;;;;;;3.60;3.00;;;8.50;59.30;;;;;;20719;6748;305532;-74
2022/11/22 05:24:31;;;;;;;2.83;2.60;;;8.60;59.40;;;;;;20684;6729;277330;-75
2022/11/22 05:27:07;;;;;;;3.10;2.80;;;8.90;58.80;;;;;;20666;6730;307317;-74
2022/11/22 05:29:42;;;;;;;3.87;2.20;;;9.20;58.10;;;;;;20950;6730;116561;-74
2022/11/22 05:32:18;;;;;;;3.50;2.03;;;9.00;58.00;;;;;;20939;6730;116647;-72
2022/11/22 05:34:55;;;;;;;4.25;2.50;;;8.70;58.70;;;;;;20668;6729;307072;-74
2022/11/22 05:37:30;;;;;;;2.80;1.70;;;8.70;58.70;;;;;;20930;6734;118335;-73
2022/11/22 05:40:06;;;;;;;3.13;1.83;;;8.60;58.60;;;;;;20947;6730;118331;-71
2022/11/22 05:42:43;;;;;;;3.47;2.20;;;8.40;59.10;;;;;;20714;6730;321562;-72
2022/11/22 05:45:19;;;;;;;3.80;2.50;;;8.50;59.20;;;;;;20639;6749;310346;-72
2022/11/22 05:47:55;;;;;;;5.33;2.50;;;9.10;57.50;;;;;;20668;6748;338052;-74
2022/11/22 05:50:30;;;;;;;2.93;2.20;;;9.10;57.60;;;;;;20925;6730;117289;-76
2022/11/22 05:53:07;;;;;;;4.95;2.42;;;8.90;58.10;;;;;;20721;6730;335704;-74
2022/11/22 05:55:42;;;;;;;3.30;2.40;;;8.90;57.90;;;;;;20813;6730;117315;-75
2022/11/22 05:58:19;;;;;;;3.30;2.37;;;8.50;58.60;;;;;;20941;6730;117278;-73
2022/11/22 06:00:54;;;;;;;2.78;2.58;;;8.50;58.60;;;;;;20658;6730;276338;-73
2022/11/22 06:03:30;;;;;;;3.13;2.67;;;8.60;58.60;;;;;;20938;6730;116890;-74
2022/11/22 06:06:06;;;;;;;3.30;2.10;;;8.60;58.60;;;;;;20813;6730;117398;-73
2022/11/22 06:08:42;;;;;;;3.60;2.20;;;8.40;59.00;;;;;;20706;6734;308009;-74
2022/11/22 06:11:17;;;;;;;5.57;2.58;;;8.50;59.00;;;;;;20738;6730;276395;-74
2022/11/22 06:13:55;;;;;;;3.50;2.65;;;8.80;58.10;;;;;;20718;6730;304909;-74
2022/11/22 06:16:31;;;;;;;2.90;1.90;;;9.10;57.30;;;;;;20744;6730;117233;-74
2022/11/22 06:19:07;;;;;;;4.80;2.30;;;8.90;57.30;;;;;;20718;6734;307807;-74
2022/11/22 06:21:43;;;;;;;2.50;1.80;;;8.90;57.30;;;;;;20943;6730;121862;-74
2022/11/22 06:24:19;;;;;;;3.30;1.50;;;8.80;57.40;;;;;;20925;6730;117396;-72
2022/11/22 06:26:55;;;;;;;3.13;1.87;;;8.50;58.00;;;;;;20946;6730;119783;-73
2022/11/22 06:29:31;;;;;;;5.47;2.20;;;8.10;59.20;;;;;;20926;6729;119204;-73
2022/11/22 06:32:07;;;;;;;4.13;2.27;;;8.10;59.20;;;;;;20740;6729;277927;-74
2022/11/22 06:34:43;;;;;;;3.10;2.10;;;8.30;59.20;;;;;;20696;6729;307718;-73
2022/11/22 06:37:19;;;;;;;5.32;2.60;;;8.70;58.40;;;;;;20735;6729;334849;-72
2022/11/22 06:39:54;;;;;;;3.77;2.20;;;9.00;57.40;;;;;;20930;6729;117227;-73
2022/11/22 06:42:30;;;;;;;2.83;2.20;;;8.90;57.30;;;;;;20930;6748;116667;-75
2022/11/22 06:45:06;;;;;;;2.23;2.03;;;8.60;57.90;;;;;;20887;6730;116607;-74
2022/11/22 06:47:42;;;;;;;4.10;2.40;;;8.30;58.40;;;;;;20723;6730;276094;-75
2022/11/22 06:50:17;;;;;;;4.47;2.90;;;8.50;58.60;;;;;;20740;6748;310739;-73
2022/11/22 06:52:56;;;;;;;4.57;3.17;;;8.80;57.90;;;;;;20951;6730;117387;-74
2022/11/22 06:55:28;;;;;;;7.67;3.50;;;8.70;57.70;;;;;;20629;6730;335935;-74
2022/11/22 06:58:04;;;;;;;4.07;2.45;;;8.80;57.90;;;;;;20724;6730;307659;-74
2022/11/22 07:00:40;;;;;;;3.67;2.30;;;9.10;57.40;;;;;;20940;6730;116635;-75
2022/11/22 07:03:15;;;;;;;3.63;2.17;;;9.00;57.40;;;;;;20932;6730;116990;-74
2022/11/22 07:05:52;;;;;;;3.03;2.50;;;8.70;57.90;;;;;;20624;6730;307032;-74
2022/11/22 07:08:27;;;;;;;6.07;2.97;;;8.80;58.10;;;;;;20755;6730;305232;-74
2022/11/22 07:11:13;;;;;;;6.22;3.00;;;9.10;57.40;;;;;;20754;6730;289740;-74
2022/11/22 07:13:49;;;;;;;4.07;2.60;;;9.30;56.60;;;;;;20924;6748;116660;-75
2022/11/22 07:16:24;;;;;;;3.10;2.20;;;9.20;56.70;;;;;;20792;6730;116942;-75
2022/11/22 07:19:00;;;;;;;3.53;2.50;;;8.80;57.40;;;;;;20949;6730;116638;-74
2022/11/22 07:21:38;;;;;;;3.90;2.60;;;8.60;58.00;;;;;;20929;6730;118392;-75
2022/11/22 07:24:14;;;;;;;4.80;2.85;;;8.40;58.50;;;;;;20736;6730;275795;-74
2022/11/22 07:26:50;;;;;;;4.28;2.70;;;8.60;58.50;;;;;;20520;6801;308206;-74
2022/11/22 07:29:25;;;;;;;4.80;2.70;;;9.00;57.70;;;;;;20936;6730;118742;-75
2022/11/22 07:32:01;;;;;;;3.27;2.00;;;8.90;57.40;;;;;;20956;6730;116818;-75
2022/11/22 07:34:38;;;;;;;4.87;2.60;;;8.80;58.00;;;;;;20697;6749;305543;-75
2022/11/22 07:37:16;;;;;;;6.15;2.40;;;8.90;57.60;;;;;;20709;6755;306560;-74
2022/11/22 07:39:49;;;;;;;5.03;2.45;;;9.20;56.60;;;;;;20682;6755;335047;-75
2022/11/22 07:42:26;;;;;;;4.40;2.90;;;9.50;55.80;;;;;;20694;6755;307870;-75
2022/11/22 07:45:01;;;;;;;6.45;2.80;;;9.70;55.20;;;;;;20650;6755;278088;-74
2022/11/22 07:47:37;;;;;;;4.03;2.20;;;9.90;54.90;;;;;;20849;6768;116985;-75
2022/11/22 07:50:14;;;;;;;4.63;2.80;;;9.70;55.20;;;;;;20631;6763;277379;-74
2022/11/22 07:52:56;;;;;;;4.73;2.90;;;9.70;55.00;;;;;;20682;6744;305283;-74
2022/11/22 07:55:31;;;;;;;5.47;2.73;;;9.90;54.80;;;;;;20816;6744;116897;-74
2022/11/22 07:58:07;;;;;;;4.87;2.83;;;9.70;55.10;;;;;;20945;6730;117319;-76
2022/11/22 08:00:46;;;;;;;5.07;2.53;;;9.40;55.80;;;;;;20946;6730;117296;-81
2022/11/22 08:03:18;;;;;;;7.07;4.93;;;9.10;56.40;;;;;;20718;6749;294366;-76
2022/11/22 08:06:00;;;;;;;4.37;3.10;;;9.20;56.40;;;;;;20598;6729;305130;-75
2022/11/22 08:08:39;;;;;;;5.33;2.30;;;9.50;55.70;;;;;;20735;6730;275750;-72
2022/11/22 08:11:12;;;;;;;4.07;1.90;;;9.80;54.90;;;;;;20936;6748;119338;-76
2022/11/22 08:13:47;;;;;;;3.67;2.07;;;9.60;55.00;;;;;;20935;6730;118936;-72
2022/11/22 08:16:23;;;;;;;3.40;1.90;;;9.30;55.60;;;;;;20799;6730;117575;-73
2022/11/22 08:18:58;;;;;;;2.17;1.73;;;9.10;56.30;;;;;;20924;6730;116599;-73
2022/11/22 08:21:34;;;;;;;3.33;1.67;;;8.90;56.80;;;;;;20914;6749;119802;-72
2022/11/22 08:24:13;;;;;;;4.70;2.40;;;8.80;57.20;;;;;;20949;6730;117851;-73
2022/11/22 08:26:49;;;;;;;6.30;2.30;;;8.70;57.50;;;;;;20721;6801;117229;-72
2022/11/22 08:29:22;;;;;;;3.20;1.93;;;8.60;57.80;;;;;;20944;6730;120017;-73
2022/11/22 08:31:58;;;;;;;5.23;2.33;;;8.50;58.10;;;;;;20731;6730;305320;-74
2022/11/22 08:34:37;;;;;;;3.60;1.73;;;8.80;57.90;;;;;;20911;6749;119168;-74
2022/11/22 08:37:09;;;;;;;4.70;2.10;;;8.90;57.70;;;;;;20865;6769;118729;-74
2022/11/22 08:39:45;;;;;;;4.50;1.87;;;8.90;57.90;;;;;;20796;6763;118049;-74
2022/11/22 08:42:21;;;;;;;4.23;2.10;;;8.80;58.20;;;;;;20642;6761;305349;-74
2022/11/22 08:44:57;;;;;;;3.57;2.07;;;9.00;57.70;;;;;;20626;6759;279222;-74
2022/11/22 08:47:32;;;;;;;4.23;1.93;;;9.50;57.10;;;;;;20826;6761;118064;-75
2022/11/22 08:50:09;;;;;;;3.62;2.17;;;9.60;55.90;;;;;;20680;6746;309799;-75
2022/11/22 08:52:44;;;;;;;3.40;1.67;;;9.60;55.90;;;;;;20779;6796;116996;-74
2022/11/22 08:55:20;;;;;;;5.10;2.50;;;9.70;55.20;;;;;;20622;6759;337015;-74
2022/11/22 08:57:59;;;;;;;3.80;2.20;;;9.70;55.50;;;;;;20619;6768;278103;-74
2022/11/22 09:00:35;;;;;;;2.80;1.80;;;10.10;54.10;;;;;;20851;6759;117154;-74
2022/11/22 09:03:10;;;;;;;3.53;2.37;;;10.00;54.10;;;;;;20820;6768;117479;-74
2022/11/22 09:05:46;;;;;;;4.00;2.00;;;9.80;55.70;;;;;;20543;6752;290941;-75
2022/11/22 09:08:22;;;;;;;4.13;2.10;;;9.90;55.80;;;;;;20777;6781;117063;-73
2022/11/22 09:11:01;;;;;;;4.22;2.10;;;9.90;55.80;;;;;;20558;6781;308870;-73
2022/11/22 09:13:36;;;;;;;3.27;2.00;;;10.10;54.70;;;;;;20684;6807;120745;-73
2022/11/22 09:16:12;;;;;;;3.70;1.80;;;10.10;54.80;;;;;;20651;6785;117431;-71
2022/11/22 09:18:48;;;;;;;4.00;2.25;;;9.90;56.20;;;;;;20636;6752;339425;-73
2022/11/22 09:21:23;;;;;;;3.17;2.10;;;10.00;54.90;;;;;;20807;6767;118060;-72
2022/11/22 09:24:00;;;;;;;5.07;1.90;;;10.10;55.00;;;;;;20856;6759;117443;-74
2022/11/22 09:26:36;;;;;;;4.03;2.17;;;10.00;55.40;;;;;;20455;6759;308797;-72
2022/11/22 09:29:14;;;;;;;3.23;2.03;;;10.20;55.00;;;;;;20779;6779;117773;-74
2022/11/22 09:31:47;;;;;;;4.17;2.10;;;10.20;55.00;;;;;;20831;6757;122364;-72
2022/11/22 09:34:22;;;;;;;4.90;2.37;;;10.00;55.20;;;;;;20632;6761;305753;-73
2022/11/22 09:36:58;;;;;;;3.33;1.77;;;10.20;55.10;;;;;;20868;6752;116968;-75
2022/11/22 09:39:39;;;;;;;4.17;2.40;;;10.10;55.40;;;;;;20827;6763;118518;-74
2022/11/22 09:42:29;;;;;;;2.83;2.30;;;10.00;55.30;;;;;;20821;6767;117660;-74
2022/11/22 09:45:32;;;;;;;4.80;2.80;;;9.90;56.70;;;;;;20544;6776;309112;-72
2022/11/22 09:48:21;;;;;;;4.97;2.20;;;10.10;55.40;;;;;;20879;6751;116798;-73
2022/11/22 09:51:16;;;;;;;4.67;2.70;;;10.20;55.30;;;;;;20667;6751;305724;-74
2022/11/22 09:53:56;;;;;;;7.17;2.20;;;10.40;54.90;;;;;;20814;6761;117694;-73
2022/11/22 09:56:29;;;;;;;4.93;2.47;;;10.30;54.70;;;;;;20493;6761;309621;-73
2022/11/22 09:59:14;;;;;;;3.40;2.00;;;10.40;53.20;;;;;;20848;6763;118846;-74
2022/11/22 10:02:03;;;;;;;4.40;2.30;;;10.40;53.40;;;;;;20764;6783;123831;-73
2022/11/22 10:04:36;;;;;;;4.93;1.90;;;10.20;54.00;;;;;;20824;6763;118137;-73
2022/11/22 10:07:19;;;;;;;3.65;2.53;;;10.00;54.50;;;;;;20582;6783;306090;-73
2022/11/22 10:09:52;;;;;;;5.33;2.80;;;10.20;54.10;;;;;;20581;6778;276970;-74
2022/11/22 10:12:57;;;;;;;4.30;2.70;;;10.60;53.60;;;;;;20583;6781;308002;-73
2022/11/22 10:15:47;;;;;;;6.10;2.57;;;10.90;53.10;;;;;;20743;6781;119368;-74
2022/11/22 10:18:49;;;;;;;4.07;2.45;;;10.80;53.30;;;;;;20567;6771;336972;-73
2022/11/22 10:21:24;;;;;;;4.43;2.43;;;10.90;52.80;;;;;;20839;6771;120654;-73
2022/11/22 10:24:00;;;;;;;3.90;2.72;;;10.80;53.10;;;;;;20579;6786;321851;-70
2022/11/22 10:26:36;;;;;;;4.40;2.70;;;10.80;53.10;;;;;;20479;6759;310995;-71
2022/11/22 10:29:45;;;;;;;5.53;2.37;;;11.00;52.30;;;;;;20756;6781;118237;-72
2022/11/22 10:32:31;;;;;;;5.50;2.20;;;10.90;52.20;;;;;;20830;6763;116139;-73
2022/11/22 10:35:16;;;;;;;5.43;2.33;;;10.60;52.80;;;;;;20506;6776;278887;-75
2022/11/22 10:37:59;;;;;;;7.13;2.67;;;10.70;51.70;;;;;;20595;6761;309595;-73
2022/11/22 10:40:57;;;;;;;3.43;2.20;;;11.00;51.40;;;;;;20541;6799;280940;-72
2022/11/22 10:43:44;;;;;;;4.17;1.87;;;11.00;51.10;;;;;;20830;6770;118592;-76
2022/11/22 10:46:40;;;;;;;3.70;1.77;;;11.00;51.20;;;;;;20650;6770;118391;-73
2022/11/22 10:49:19;;;;;;;4.97;2.20;;;10.70;51.90;;;;;;20619;6764;306416;-74
2022/11/22 10:52:08;;;;;;;4.87;2.13;;;10.80;51.20;;;;;;20857;6748;116926;-74
2022/11/22 10:54:44;;;;;;;4.80;2.00;;;10.60;52.00;;;;;;20843;6749;118042;-74
2022/11/22 10:57:20;;;;;;;3.72;1.98;;;10.60;52.00;;;;;;20614;6816;309241;-74
2022/11/22 11:00:12;;;;;;;3.87;1.50;;;10.70;50.30;;;;;;20858;6746;117705;-75
2022/11/22 11:02:54;;;;;;;5.03;2.30;;;10.70;50.60;;;;;;20670;6746;306089;-73
2022/11/22 11:05:31;;;;;;;6.17;2.23;;;10.90;49.80;;;;;;20693;6761;121455;-75
2022/11/22 11:08:06;;;;;;;4.00;1.70;;;10.80;50.20;;;;;;20809;6776;118382;-75
2022/11/22 11:10:43;;;;;;;4.00;1.97;;;10.70;50.80;;;;;;20623;6761;338899;-73
2022/11/22 11:13:22;;;;;;;3.63;1.63;;;10.80;49.90;;;;;;20837;6761;117846;-72
2022/11/22 11:15:58;;;;;;;4.33;2.00;;;10.80;49.90;;;;;;20585;6744;278535;-71
2022/11/22 11:19:00;;;;;;;4.37;1.57;;;11.00;48.80;;;;;;20832;6766;117039;-71
2022/11/22 11:21:33;;;;;;;2.27;1.67;;;10.80;50.00;;;;;;20851;6808;121036;-72
2022/11/22 11:24:15;;;;;;;1.93;1.60;;;10.80;50.00;;;;;;20799;6766;117194;-72
2022/11/22 11:26:51;;;;;;;3.33;1.67;;;10.70;50.60;;;;;;20627;6823;121704;-70
2022/11/22 11:29:29;;;;;;;4.57;1.90;;;10.60;51.20;;;;;;20631;6752;276953;-71
2022/11/22 11:32:11;;;;;;;5.63;2.07;;;10.80;49.90;;;;;;20787;6766;117384;-73
2022/11/22 11:34:57;;;;;;;3.67;2.13;;;10.90;49.90;;;;;;20847;6737;116981;-72
2022/11/22 11:37:32;;;;;;;4.20;1.60;;;10.80;50.30;;;;;;20775;6767;121770;-71
2022/11/22 11:40:30;;;;;;;5.73;1.77;;;10.70;50.60;;;;;;20753;6782;116319;-71
2022/11/22 11:43:37;;;;;;;3.87;1.70;;;11.00;48.60;;;;;;20645;6752;278057;-71
2022/11/22 11:46:13;;;;;;;3.35;1.87;;;11.50;46.60;;;;;;20480;6767;338406;-71
2022/11/22 11:48:49;;;;;;;3.37;1.53;;;11.40;46.80;;;;;;20799;6767;118144;-71
2022/11/22 11:51:39;;;;;;;3.85;1.70;;;11.60;47.50;;;;;;20393;6823;279840;-72
2022/11/22 11:54:14;;;;;;;2.93;1.73;;;11.60;47.10;;;;;;20827;6767;117033;-73
2022/11/22 11:56:51;;;;;;;3.92;1.95;;;11.50;47.50;;;;;;20351;6851;340176;-72
2022/11/22 11:59:36;;;;;;;4.53;1.80;;;11.60;46.40;;;;;;20567;6770;277804;-72
2022/11/22 12:02:24;;;;;;;4.23;1.63;;;11.80;45.60;;;;;;20780;6779;117622;-71
2022/11/22 12:05:00;;;;;;;3.33;1.80;;;11.70;46.30;;;;;;20745;6759;117230;-73
2022/11/22 12:07:35;;;;;;;2.50;1.43;;;11.40;47.00;;;;;;20759;6761;119086;-72
2022/11/22 12:10:35;;;;;;;3.87;1.62;;;11.20;47.60;;;;;;20594;6766;310106;-72
2022/11/22 12:13:20;;;;;;;2.97;1.27;;;11.30;46.60;;;;;;20894;6746;116890;-71
2022/11/22 12:16:26;;;;;;;4.60;2.00;;;11.50;45.30;;;;;;20501;6778;277950;-73
2022/11/22 12:19:38;;;;;;;3.62;2.00;;;11.40;45.70;;;;;;20598;6770;339497;-70
2022/11/22 12:22:17;;;;;;;3.53;1.63;;;11.80;45.20;;;;;;19498;7145;291412;-72
2022/11/22 12:24:53;;;;;;;3.30;1.93;;;12.10;44.70;;;;;;19456;7138;323227;-71
2022/11/22 12:27:28;;;;;;;4.00;1.77;;;12.20;43.80;;;;;;19875;6837;323106;-71
2022/11/22 12:30:05;;;;;;;4.03;1.80;;;12.10;44.70;;;;;;20763;6781;117073;-71
2022/11/22 12:32:41;;;;;;;5.07;2.10;;;12.10;44.30;;;;;;20583;6776;289416;-71
2022/11/22 12:35:16;;;;;;;3.75;2.12;;;12.10;44.00;;;;;;20609;6746;280342;-71
2022/11/22 12:37:52;;;;;;;3.77;1.87;;;12.20;43.60;;;;;;20777;6775;117187;-71
2022/11/22 12:40:31;;;;;;;4.32;2.00;;;12.10;44.30;;;;;;20609;6766;306661;-71
2022/11/22 12:43:06;;;;;;;4.33;1.43;;;12.00;43.60;;;;;;20706;6838;117023;-71
2022/11/22 12:45:42;;;;;;;2.23;1.33;;;11.80;44.40;;;;;;20678;6752;117950;-71
2022/11/22 12:48:21;;;;;;;2.70;1.50;;;11.50;45.10;;;;;;20827;6767;116883;-71
2022/11/22 12:50:59;;;;;;;2.57;1.60;;;11.20;45.90;;;;;;20845;6759;116959;-71
2022/11/22 12:53:35;;;;;;;3.33;1.20;;;11.00;46.50;;;;;;20780;6774;117520;-72
2022/11/22 12:56:13;;;;;;;3.47;2.00;;;10.80;46.80;;;;;;20480;6766;278571;-71
2022/11/22 12:58:48;;;;;;;3.90;1.93;;;11.00;45.80;;;;;;20629;6759;306625;-71
2022/11/22 13:01:25;;;;;;;4.33;1.50;;;11.40;45.60;;;;;;20773;6774;118176;-72
2022/11/22 13:04:02;;;;;;;4.62;1.60;;;11.40;45.80;;;;;;20583;6776;338325;-71
2022/11/22 13:07:01;;;;;;;2.03;1.30;;;11.50;44.60;;;;;;20630;6776;118422;-71
2022/11/22 13:09:37;;;;;;;2.97;1.40;;;11.50;45.40;;;;;;20797;6767;118547;-71
2022/11/22 13:12:36;;;;;;;4.30;1.30;;;11.20;46.10;;;;;;20881;6752;117004;-71
2022/11/22 13:15:11;;;;;;;3.10;1.40;;;11.00;46.60;;;;;;20448;6838;281120;-71
2022/11/22 13:17:47;;;;;;;3.57;1.33;;;11.30;45.60;;;;;;20794;6771;117084;-72
2022/11/22 13:20:25;;;;;;;1.57;1.27;;;11.30;45.80;;;;;;20835;6771;117544;-72
2022/11/22 13:23:24;;;;;;;1.10;1.00;;;11.10;46.20;;;;;;20861;6752;117451;-72
2022/11/22 13:26:06;;;;;;;3.90;1.60;;;10.80;46.60;;;;;;20534;6752;307457;-71
2022/11/22 13:28:42;;;;;;;2.20;1.30;;;11.00;45.80;;;;;;20920;6737;117014;-71
2022/11/22 13:31:19;;;;;;;4.18;1.77;;;11.00;46.30;;;;;;20696;6737;329547;-72
2022/11/22 13:33:56;;;;;;;3.20;1.70;;;11.20;46.50;;;;;;20678;6737;335540;-76
2022/11/22 13:36:31;;;;;;;4.43;1.80;;;11.50;45.80;;;;;;20541;6737;280265;-75
2022/11/22 13:39:11;;;;;;;2.93;1.47;;;11.70;44.80;;;;;;20651;6751;306351;-75
2022/11/22 13:41:56;;;;;;;4.20;1.30;;;11.90;43.70;;;;;;20872;6737;118530;-75
2022/11/22 13:44:33;;;;;;;2.35;1.33;;;11.60;44.40;;;;;;20660;6737;310409;-75
2022/11/22 13:47:12;;;;;;;2.80;1.40;;;11.40;44.80;;;;;;20913;6737;116791;-75
2022/11/22 13:49:48;;;;;;;3.07;1.40;;;11.40;44.80;;;;;;20646;6752;309398;-74
2022/11/22 13:52:27;;;;;;;2.77;2.50;;;11.20;45.20;;;;;;20822;6761;117126;-75
2022/11/22 13:55:03;;;;;;;35.97;32.13;;;11.20;45.10;;;;;;20777;6776;122275;-78